Time;durP1;ratioP1;P1;durP2;ratioP2;P2;SDS_P1;SDS_P2;PMS_P1;PMS_P2;Temp;Humidity;BMP_temperature;BMP_pressure;BME280_temperature;BME280_humidity;BME280_pressure;Samples;Min_cycle;Max_cycle;Signal;HPM_P1;HPM_P2
2022/11/17 00:01:36;;;;;;;1.30;0.80;;;;;;;;;;20949725;28;20230;-66
2022/11/17 00:21:58;;;;;;;3.33;1.13;;;;;;;;;;20949519;28;20259;-66
2022/11/17 00:42:20;;;;;;;2.20;0.97;;;;;;;;;;20947734;28;20248;-66
2022/11/17 00:52:22;;;;;;;1.47;0.70;;;;;;;;;;20944025;28;20286;-66
2022/11/17 01:02:24;;;;;;;1.07;0.80;;;;;;;;;;20943488;28;20255;-66
2022/11/17 01:12:26;;;;;;;2.80;0.93;;;;;;;;;;20942686;28;20262;-66
2022/11/17 01:22:27;;;;;;;1.40;0.90;;;;;;;;;;20941710;28;20263;-66
2022/11/17 01:32:29;;;;;;;1.10;0.60;;;;;;;;;;20941378;28;20266;-66
2022/11/17 01:42:31;;;;;;;2.00;0.77;;;;;;;;;;20940110;28;20216;-66
2022/11/17 01:52:35;;;;;;;0.83;0.60;;;;;;;;;;20951258;28;20263;-66
2022/11/17 02:02:39;;;;;;;1.07;0.53;;;;;;;;;;20954776;28;20229;-66
2022/11/17 02:12:41;;;;;;;0.87;0.50;;;;;;;;;;20938156;28;20225;-66
2022/11/17 02:22:55;;;;;;;0.40;0.40;;;;;;;;;;20937976;28;20209;-66
2022/11/17 02:33:16;;;;;;;0.50;0.50;;;10.20;99.90;;;;;;20932783;28;20213;-66
2022/11/17 02:53:40;;;;;;;0.90;0.57;;;;;;;;;;20951931;28;21010;-66
2022/11/17 03:03:54;;;;;;;0.60;0.47;;;;;;;;;;20952028;28;20389;-66
2022/11/17 03:13:57;;;;;;;0.60;0.50;;;;;;;;;;20951028;28;20212;-66
2022/11/17 03:23:58;;;;;;;2.83;0.73;;;;;;;;;;20934680;28;20297;-66
2022/11/17 03:34:01;;;;;;;0.87;0.53;;;;;;;;;;20934000;28;20205;-66
2022/11/17 03:44:04;;;;;;;0.63;0.47;;;;;;;;;;21044660;22;20247;-65
2022/11/17 03:54:07;;;;;;;0.77;0.60;;;9.70;99.90;;;;;;21049953;28;20212;-65
2022/11/17 04:04:17;;;;;;;0.57;0.47;;;10.00;99.90;;;;;;21065920;28;20236;-65
2022/11/17 04:24:40;;;;;;;0.70;0.60;;;;;;;;;;21038769;28;20224;-65
2022/11/17 04:34:41;;;;;;;0.67;0.67;;;;;;;;;;20963828;28;20213;-65
2022/11/17 04:44:43;;;;;;;0.30;0.30;;;;;;;;;;21040608;28;20254;-65
2022/11/17 04:54:45;;;;;;;0.53;0.43;;;;;;;;;;21009791;28;20205;-66
2022/11/17 05:04:56;;;;;;;1.10;0.60;;;;;;;;;;21044493;28;20228;-65
2022/11/17 05:14:57;;;;;;;0.50;0.33;;;;;;;;;;21045591;28;20204;-65
2022/11/17 05:24:59;;;;;;;0.73;0.50;;;9.70;99.90;;;;;;21026674;28;20225;-66
2022/11/17 05:35:02;;;;;;;2.83;0.40;;;;;;;;;;21042820;28;20216;-66
2022/11/17 05:45:04;;;;;;;1.23;0.60;;;;;;;;;;21041964;28;20262;-66
2022/11/17 05:55:06;;;;;;;1.17;0.50;;;9.60;99.90;;;;;;21056962;28;20642;-66
2022/11/17 06:05:09;;;;;;;0.57;0.40;;;9.70;99.90;;;;;;21023947;28;20273;-66
2022/11/17 06:15:11;;;;;;;1.70;0.60;;;;;;;;;;21039171;28;20224;-66
2022/11/17 06:25:14;;;;;;;0.60;0.50;;;;;;;;;;21051249;28;20294;-66
2022/11/17 06:35:16;;;;;;;1.60;0.87;;;;;;;;;;21006762;28;20212;-65
2022/11/17 06:45:18;;;;;;;1.60;0.67;;;;;;;;;;21005287;28;20215;-66
2022/11/17 06:55:19;;;;;;;0.80;0.47;;;;;;;;;;21017037;28;20421;-66
2022/11/17 07:05:21;;;;;;;0.53;0.40;;;;;;;;;;21032813;28;20209;-66
2022/11/17 07:15:23;;;;;;;0.57;0.40;;;;;;;;;;21016585;28;20684;-63
2022/11/17 07:25:25;;;;;;;0.70;0.30;;;;;;;;;;21025798;28;20216;-65
2022/11/17 07:35:27;;;;;;;0.40;0.30;;;10.10;99.90;;;;;;21021762;28;20273;-65
2022/11/17 07:45:29;;;;;;;2.40;0.87;;;;;;;;;;21026405;28;20289;-65
2022/11/17 07:55:32;;;;;;;1.30;0.40;;;;;;;;;;21027407;28;20266;-64
2022/11/17 08:05:35;;;;;;;2.83;0.70;;;;;;;;;;21022233;28;20262;-64
2022/11/17 08:15:37;;;;;;;1.23;0.43;;;;;;;;;;21026781;28;20687;-64
2022/11/17 08:25:38;;;;;;;1.63;0.40;;;;;;;;;;21020720;28;20573;-64
2022/11/17 08:35:40;;;;;;;1.90;0.40;;;;;;;;;;21026046;28;20244;-64
2022/11/17 08:45:42;;;;;;;0.50;0.20;;;;;;;;;;21010880;28;20224;-64
2022/11/17 08:55:45;;;;;;;1.63;0.40;;;;;;;;;;21043182;28;20228;-64
2022/11/17 09:05:47;;;;;;;2.30;0.60;;;;;;;;;;20975762;28;20278;-64
2022/11/17 09:15:48;;;;;;;1.40;0.70;;;;;;;;;;20958339;28;20726;-64
2022/11/17 09:25:50;;;;;;;2.70;0.70;;;;;;;;;;20957960;28;20274;-65
2022/11/17 09:35:56;;;;;;;0.97;0.60;;;;;;;;;;20969960;28;20622;-65
2022/11/17 09:46:08;;;;;;;1.97;0.57;;;11.20;99.90;;;;;;21038383;28;20228;-66
2022/11/17 09:56:12;;;;;;;2.03;0.90;;;11.00;99.90;;;;;;21054983;28;21012;-64
2022/11/17 10:06:19;;;;;;;0.50;0.40;;;;;;;;;;21047254;22;20623;-66
2022/11/17 10:16:21;;;;;;;0.50;0.40;;;;;;;;;;21068047;28;20217;-66
2022/11/17 10:26:25;;;;;;;2.07;0.70;;;11.00;99.90;;;;;;21067638;28;20597;-66
2022/11/17 10:36:28;;;;;;;4.10;1.13;;;;;;;;;;21068134;28;20258;-66
2022/11/17 10:46:30;;;;;;;0.20;0.20;;;;;;;;;;21067200;28;20220;-66
2022/11/17 10:56:49;;;;;;;0.50;0.30;;;;;;;;;;21061647;28;20216;-66
2022/11/17 11:07:04;;;;;;;0.73;0.40;;;;;;;;;;21056913;28;20273;-66
2022/11/17 11:17:14;;;;;;;0.70;0.30;;;11.80;99.90;;;;;;21067675;28;20768;-66
2022/11/17 11:27:46;;;;;;;5.23;2.57;;;;;;;;;;21065833;28;20240;-67
2022/11/17 11:37:54;;;;;;;0.47;0.43;;;;;;;;;;21059102;28;20656;-66
2022/11/17 11:48:05;;;;;;;2.30;0.57;;;11.70;99.90;;;;;;21066206;28;20205;-67
2022/11/17 11:58:20;;;;;;;1.03;0.40;;;;;;;;;;21066183;28;20188;-66
2022/11/17 12:08:33;;;;;;;1.30;0.50;;;11.90;99.90;;;;;;21079501;28;20285;-66
2022/11/17 12:18:35;;;;;;;2.50;0.40;;;;;;;;;;21080542;28;20212;-67
2022/11/17 12:28:39;;;;;;;1.53;0.63;;;12.00;99.90;;;;;;21080144;28;20242;-66
2022/11/17 12:38:40;;;;;;;0.90;0.50;;;;;;;;;;21062606;28;20213;-67
2022/11/17 12:48:49;;;;;;;1.27;0.53;;;;;;;;;;21070502;28;20729;-67
2022/11/17 12:59:02;;;;;;;1.30;0.43;;;12.10;99.90;;;;;;21075608;28;20216;-67
2022/11/17 13:09:06;;;;;;;2.40;0.50;;;;;;;;;;21066323;28;20273;-67
2022/11/17 13:19:27;;;;;;;1.27;0.60;;;;;;;;;;21070505;28;20701;-67
2022/11/17 13:29:29;;;;;;;0.20;0.20;;;;;;;;;;21073189;28;20228;-67
2022/11/17 13:39:31;;;;;;;0.83;0.30;;;;;;;;;;21071899;28;20212;-67
2022/11/17 13:49:36;;;;;;;0.40;0.40;;;;;;;;;;21060969;28;20269;-67
2022/11/17 13:59:38;;;;;;;0.37;0.37;;;;;;;;;;21061061;28;20288;-67
2022/11/17 14:09:40;;;;;;;0.63;0.40;;;;;;;;;;21063399;28;20221;-67
2022/11/17 14:19:42;;;;;;;1.33;0.40;;;;;;;;;;21035499;28;20577;-67
2022/11/17 14:29:43;;;;;;;0.30;0.30;;;;;;;;;;20975008;28;20298;-67
2022/11/17 14:39:45;;;;;;;0.60;0.40;;;;;;;;;;21017748;28;20269;-67
2022/11/17 14:49:47;;;;;;;1.53;0.70;;;;;;;;;;21058613;28;20345;-67
2022/11/17 14:59:49;;;;;;;1.23;0.60;;;;;;;;;;21054135;28;20261;-67
2022/11/17 15:09:50;;;;;;;0.83;0.47;;;;;;;;;;21049139;28;20283;-67
2022/11/17 15:19:52;;;;;;;2.00;1.00;;;;;;;;;;21054156;28;20234;-67
2022/11/17 15:29:54;;;;;;;1.67;1.00;;;;;;;;;;21057762;28;20419;-67
2022/11/17 15:39:55;;;;;;;1.03;0.60;;;;;;;;;;21064118;28;20683;-66
2022/11/17 15:49:57;;;;;;;0.30;0.30;;;;;;;;;;21076807;28;20236;-67
2022/11/17 15:59:59;;;;;;;1.00;0.60;;;;;;;;;;21078035;22;1151558;-64
2022/11/17 16:10:02;;;;;;;2.83;1.43;;;;;;;;;;21130758;28;20526;-64
2022/11/17 16:20:04;;;;;;;1.60;0.90;;;10.70;99.90;;;;;;21144359;27;20263;-64
2022/11/17 16:30:06;;;;;;;2.47;1.17;;;;;;;;;;21192366;27;20635;-64
2022/11/17 16:40:08;;;;;;;7.00;2.00;;;10.80;99.90;;;;;;21198059;27;20216;-64
2022/11/17 16:50:10;;;;;;;2.40;1.20;;;;;;;;;;21031473;28;20309;-65
2022/11/17 17:00:13;;;;;;;1.67;0.60;;;10.70;99.90;;;;;;21103016;28;20602;-64
2022/11/17 17:10:16;;;;;;;3.93;1.43;;;;;;;;;;21112869;28;20243;-64
2022/11/17 17:20:18;;;;;;;3.27;1.60;;;;;;;;;;21093887;28;21011;-64
2022/11/17 17:30:20;;;;;;;3.83;1.13;;;;;;;;;;21118452;28;20625;-65
2022/11/17 17:40:24;;;;;;;1.77;1.07;;;;;;;;;;21100507;28;20280;-64
2022/11/17 17:50:26;;;;;;;3.30;1.30;;;;;;;;;;21091814;28;20620;-64
2022/11/17 18:00:28;;;;;;;1.87;1.13;;;;;;;;;;21078598;28;20261;-64
2022/11/17 18:10:31;;;;;;;1.60;1.03;;;;;;;;;;21108741;28;20714;-64
2022/11/17 18:20:32;;;;;;;2.23;1.20;;;;;;;;;;21111153;28;20199;-64
2022/11/17 18:30:35;;;;;;;2.23;1.40;;;;;;;;;;21114299;28;20212;-65
2022/11/17 18:40:37;;;;;;;3.07;1.70;;;;;;;;;;21104763;28;20281;-65
2022/11/17 18:50:43;;;;;;;7.50;4.57;;;;;;;;;;21083730;28;20220;-65
2022/11/17 19:00:45;;;;;;;9.10;5.20;;;;;;;;;;21098598;28;20686;-64
2022/11/17 19:10:53;;;;;;;5.97;3.03;;;10.50;99.90;;;;;;21115949;28;20239;-64
2022/11/17 19:21:02;;;;;;;3.00;2.17;;;;;;;;;;21076777;28;20280;-64
2022/11/17 19:31:06;;;;;;;4.07;2.60;;;10.50;99.90;;;;;;21114268;28;20232;-64
2022/11/17 19:41:19;;;;;;;5.90;3.80;;;;;;;;;;21113757;28;20231;-64
2022/11/17 19:51:22;;;;;;;4.37;2.50;;;;;;;;;;21095672;28;20285;-64
2022/11/17 20:01:28;;;;;;;4.93;2.20;;;;;;;;;;21096042;28;20216;-64
2022/11/17 20:11:30;;;;;;;6.07;2.40;;;;;;;;;;21095599;28;20273;-64
2022/11/17 20:21:33;;;;;;;4.93;1.60;;;;;;;;;;21115747;28;20265;-63
2022/11/17 20:31:36;;;;;;;3.40;1.17;;;;;;;;;;21111077;28;20661;-64
2022/11/17 20:41:37;;;;;;;2.67;1.07;;;11.10;99.90;;;;;;21109757;28;20211;-64
2022/11/17 20:51:40;;;;;;;3.20;2.10;;;;;;;;;;21128715;28;20228;-63
2022/11/17 21:01:42;;;;;;;0.80;0.60;;;;;;;;;;21110939;28;20223;-63
2022/11/17 21:11:56;;;;;;;1.13;0.60;;;;;;;;;;21069883;28;20273;-63
2022/11/17 21:21:58;;;;;;;3.63;1.30;;;;;;;;;;21071764;28;20274;-64
2022/11/17 21:31:59;;;;;;;2.10;1.10;;;;;;;;;;21050462;28;20552;-64
2022/11/17 21:42:01;;;;;;;1.53;0.80;;;;;;;;;;21108178;28;20208;-64
2022/11/17 21:52:03;;;;;;;1.07;0.53;;;;;;;;;;21107886;28;20698;-64
2022/11/17 22:02:05;;;;;;;0.93;0.60;;;;;;;;;;21068223;22;20229;-69
2022/11/17 22:12:07;;;;;;;0.77;0.50;;;;;;;;;;20987971;28;20217;-68
2022/11/17 22:22:09;;;;;;;1.27;0.67;;;;;;;;;;20987145;28;20626;-69
2022/11/17 22:32:11;;;;;;;1.37;0.73;;;;;;;;;;20984728;28;20287;-68
2022/11/17 22:42:14;;;;;;;0.50;0.50;;;9.90;99.90;;;;;;20985679;28;20209;-68
2022/11/17 22:52:15;;;;;;;2.37;0.30;;;;;;;;;;20984663;28;20267;-68
2022/11/17 23:02:17;;;;;;;0.80;0.43;;;;;;;;;;20984945;28;20225;-68
2022/11/17 23:12:19;;;;;;;0.67;0.40;;;;;;;;;;20984294;28;20294;-68
2022/11/17 23:22:21;;;;;;;0.37;0.30;;;;;;;;;;20983782;28;20221;-68
2022/11/17 23:32:23;;;;;;;2.63;0.80;;;;;;;;;;20984702;28;20777;-68
2022/11/17 23:42:25;;;;;;;0.30;0.30;;;;;;;;;;20946207;28;20290;-68
2022/11/17 23:52:26;;;;;;;0.67;0.50;;;;;;;;;;20965263;28;20283;-67
